sensor_id;sensor_type;location;lat;lon;timestamp;pressure;altitude;pressure_sealevel;temperature;humidity
13367;BME280;6752;52.612;13.630;2022-07-10T00:04:44;101291.45;;;13.30;100.00
13367;BME280;6752;52.612;13.630;2022-07-10T00:09:47;101276.81;;;13.39;100.00
13367;BME280;6752;52.612;13.630;2022-07-10T00:14:49;101279.63;;;13.42;100.00
13367;BME280;6752;52.612;13.630;2022-07-10T00:19:52;101284.53;;;13.49;100.00
13367;BME280;6752;52.612;13.630;2022-07-10T00:24:54;101273.84;;;13.53;100.00
13367;BME280;6752;52.612;13.630;2022-07-10T00:29:57;101275.80;;;13.46;100.00
13367;BME280;6752;52.612;13.630;2022-07-10T00:34:59;101269.62;;;13.54;100.00
13367;BME280;6752;52.612;13.630;2022-07-10T00:40:02;101274.50;;;13.52;100.00
13367;BME280;6752;52.612;13.630;2022-07-10T00:45:04;101275.45;;;13.51;100.00
13367;BME280;6752;52.612;13.630;2022-07-10T00:50:07;101272.56;;;13.56;100.00
13367;BME280;6752;52.612;13.630;2022-07-10T00:55:09;101258.56;;;13.55;100.00
13367;BME280;6752;52.612;13.630;2022-07-10T01:00:11;101254.37;;;13.52;100.00
13367;BME280;6752;52.612;13.630;2022-07-10T01:05:14;101257.72;;;13.54;100.00
13367;BME280;6752;52.612;13.630;2022-07-10T01:10:16;101256.92;;;13.59;100.00
13367;BME280;6752;52.612;13.630;2022-07-10T01:15:18;101250.08;;;13.59;100.00
13367;BME280;6752;52.612;13.630;2022-07-10T01:20:29;101249.50;;;13.63;100.00
13367;BME280;6752;52.612;13.630;2022-07-10T01:25:23;101251.17;;;13.64;100.00
13367;BME280;6752;52.612;13.630;2022-07-10T01:30:26;101248.62;;;13.66;100.00
13367;BME280;6752;52.612;13.630;2022-07-10T01:35:28;101242.04;;;13.70;100.00
13367;BME280;6752;52.612;13.630;2022-07-10T01:40:31;101236.67;;;13.70;100.00
13367;BME280;6752;52.612;13.630;2022-07-10T01:45:33;101241.15;;;13.76;100.00
13367;BME280;6752;52.612;13.630;2022-07-10T01:50:35;101234.66;;;13.71;100.00
13367;BME280;6752;52.612;13.630;2022-07-10T01:55:38;101242.80;;;13.68;100.00
13367;BME280;6752;52.612;13.630;2022-07-10T02:00:40;101233.47;;;13.76;100.00
13367;BME280;6752;52.612;13.630;2022-07-10T02:05:43;101224.94;;;13.75;100.00
13367;BME280;6752;52.612;13.630;2022-07-10T02:10:45;101238.75;;;13.74;100.00
13367;BME280;6752;52.612;13.630;2022-07-10T02:15:47;101235.83;;;13.72;100.00
13367;BME280;6752;52.612;13.630;2022-07-10T02:20:50;101219.91;;;13.81;100.00
13367;BME280;6752;52.612;13.630;2022-07-10T02:25:52;101223.41;;;13.79;100.00
13367;BME280;6752;52.612;13.630;2022-07-10T02:30:54;101215.27;;;13.81;100.00
13367;BME280;6752;52.612;13.630;2022-07-10T02:35:57;101205.65;;;13.76;100.00
13367;BME280;6752;52.612;13.630;2022-07-10T02:40:59;101209.64;;;13.76;100.00
13367;BME280;6752;52.612;13.630;2022-07-10T02:46:02;101210.30;;;13.72;100.00
13367;BME280;6752;52.612;13.630;2022-07-10T02:51:04;101218.61;;;13.65;100.00
13367;BME280;6752;52.612;13.630;2022-07-10T02:56:06;101217.44;;;13.58;100.00
13367;BME280;6752;52.612;13.630;2022-07-10T03:01:09;101210.46;;;13.68;100.00
13367;BME280;6752;52.612;13.630;2022-07-10T03:06:11;101216.33;;;13.62;100.00
13367;BME280;6752;52.612;13.630;2022-07-10T03:11:13;101203.81;;;13.60;100.00
13367;BME280;6752;52.612;13.630;2022-07-10T03:16:16;101208.41;;;13.63;100.00
13367;BME280;6752;52.612;13.630;2022-07-10T03:21:18;101196.46;;;13.67;100.00
13367;BME280;6752;52.612;13.630;2022-07-10T03:26:21;101200.42;;;13.62;100.00
13367;BME280;6752;52.612;13.630;2022-07-10T03:31:26;101208.57;;;13.59;100.00
13367;BME280;6752;52.612;13.630;2022-07-10T03:36:29;101195.44;;;13.64;100.00
13367;BME280;6752;52.612;13.630;2022-07-10T03:41:31;101197.23;;;13.65;100.00
13367;BME280;6752;52.612;13.630;2022-07-10T03:46:34;101209.52;;;13.59;100.00
13367;BME280;6752;52.612;13.630;2022-07-10T03:51:36;101198.73;;;13.70;100.00
13367;BME280;6752;52.612;13.630;2022-07-10T03:56:38;101204.74;;;13.73;100.00
13367;BME280;6752;52.612;13.630;2022-07-10T04:01:59;101195.53;;;13.76;100.00
13367;BME280;6752;52.612;13.630;2022-07-10T04:07:01;101203.96;;;13.84;100.00
13367;BME280;6752;52.612;13.630;2022-07-10T04:12:04;101203.63;;;13.77;100.00
13367;BME280;6752;52.612;13.630;2022-07-10T04:17:06;101198.41;;;13.81;100.00
13367;BME280;6752;52.612;13.630;2022-07-10T04:22:09;101195.39;;;13.86;100.00
13367;BME280;6752;52.612;13.630;2022-07-10T04:27:14;101192.56;;;13.93;100.00
13367;BME280;6752;52.612;13.630;2022-07-10T04:32:14;101199.24;;;13.82;100.00
13367;BME280;6752;52.612;13.630;2022-07-10T04:37:16;101192.48;;;13.90;100.00
13367;BME280;6752;52.612;13.630;2022-07-10T04:42:18;101187.90;;;13.96;100.00
13367;BME280;6752;52.612;13.630;2022-07-10T04:47:21;101188.05;;;14.07;100.00
13367;BME280;6752;52.612;13.630;2022-07-10T04:52:26;101175.74;;;14.28;100.00
13367;BME280;6752;52.612;13.630;2022-07-10T04:57:27;101174.19;;;14.26;100.00
13367;BME280;6752;52.612;13.630;2022-07-10T05:02:30;101176.77;;;14.36;100.00
13367;BME280;6752;52.612;13.630;2022-07-10T05:07:32;101177.83;;;14.29;100.00
13367;BME280;6752;52.612;13.630;2022-07-10T05:12:35;101182.05;;;14.53;100.00
13367;BME280;6752;52.612;13.630;2022-07-10T05:17:37;101183.76;;;14.41;100.00
13367;BME280;6752;52.612;13.630;2022-07-10T05:22:40;101179.80;;;14.62;100.00
13367;BME280;6752;52.612;13.630;2022-07-10T05:27:42;101180.31;;;14.43;100.00
13367;BME280;6752;52.612;13.630;2022-07-10T05:32:44;101184.80;;;14.59;100.00
13367;BME280;6752;52.612;13.630;2022-07-10T05:37:47;101177.38;;;14.80;100.00
13367;BME280;6752;52.612;13.630;2022-07-10T05:42:49;101171.90;;;14.80;100.00
13367;BME280;6752;52.612;13.630;2022-07-10T05:47:51;101176.16;;;14.91;99.19
13367;BME280;6752;52.612;13.630;2022-07-10T05:52:54;101179.38;;;14.94;97.76
13367;BME280;6752;52.612;13.630;2022-07-10T05:57:57;101176.22;;;14.94;98.04
13367;BME280;6752;52.612;13.630;2022-07-10T06:02:59;101177.70;;;15.10;96.36
13367;BME280;6752;52.612;13.630;2022-07-10T06:08:02;101184.80;;;15.67;94.85
13367;BME280;6752;52.612;13.630;2022-07-10T06:13:04;101178.88;;;15.61;92.94
13367;BME280;6752;52.612;13.630;2022-07-10T06:18:06;101184.85;;;15.35;93.58
13367;BME280;6752;52.612;13.630;2022-07-10T06:23:10;101184.26;;;15.68;92.79
13367;BME280;6752;52.612;13.630;2022-07-10T06:28:12;101187.30;;;15.51;91.60
13367;BME280;6752;52.612;13.630;2022-07-10T06:33:15;101178.34;;;15.50;91.93
13367;BME280;6752;52.612;13.630;2022-07-10T06:38:17;101177.50;;;15.61;92.51
13367;BME280;6752;52.612;13.630;2022-07-10T06:43:21;101176.48;;;15.53;91.54
13367;BME280;6752;52.612;13.630;2022-07-10T06:48:23;101177.34;;;16.00;92.03
13367;BME280;6752;52.612;13.630;2022-07-10T06:53:26;101181.22;;;16.01;90.92
13367;BME280;6752;52.612;13.630;2022-07-10T06:58:28;101178.32;;;16.08;89.51
13367;BME280;6752;52.612;13.630;2022-07-10T07:03:31;101179.50;;;15.98;89.02
13367;BME280;6752;52.612;13.630;2022-07-10T07:08:33;101179.55;;;16.00;88.92
13367;BME280;6752;52.612;13.630;2022-07-10T07:13:36;101170.70;;;16.18;87.38
13367;BME280;6752;52.612;13.630;2022-07-10T07:18:38;101174.73;;;16.13;85.23
13367;BME280;6752;52.612;13.630;2022-07-10T07:23:40;101169.84;;;16.54;84.14
13367;BME280;6752;52.612;13.630;2022-07-10T07:28:43;101177.80;;;16.82;82.06
13367;BME280;6752;52.612;13.630;2022-07-10T07:33:45;101177.52;;;17.17;81.52
13367;BME280;6752;52.612;13.630;2022-07-10T07:38:48;101176.81;;;16.74;77.37
13367;BME280;6752;52.612;13.630;2022-07-10T07:43:50;101181.88;;;16.57;78.81
13367;BME280;6752;52.612;13.630;2022-07-10T07:48:53;101177.65;;;16.74;77.29
13367;BME280;6752;52.612;13.630;2022-07-10T07:53:57;101179.56;;;16.74;76.90
13367;BME280;6752;52.612;13.630;2022-07-10T07:58:59;101177.10;;;17.00;77.30
13367;BME280;6752;52.612;13.630;2022-07-10T08:04:04;101175.78;;;16.94;76.02
13367;BME280;6752;52.612;13.630;2022-07-10T08:09:06;101176.63;;;16.86;76.81
13367;BME280;6752;52.612;13.630;2022-07-10T08:14:09;101167.31;;;16.90;75.54
13367;BME280;6752;52.612;13.630;2022-07-10T08:19:11;101174.20;;;17.07;75.08
13367;BME280;6752;52.612;13.630;2022-07-10T08:24:14;101175.61;;;17.37;74.39
13367;BME280;6752;52.612;13.630;2022-07-10T08:29:16;101177.75;;;17.52;73.52
13367;BME280;6752;52.612;13.630;2022-07-10T08:34:18;101174.02;;;16.96;73.90
13367;BME280;6752;52.612;13.630;2022-07-10T08:39:21;101176.34;;;16.79;73.85
13367;BME280;6752;52.612;13.630;2022-07-10T08:44:23;101179.23;;;16.79;74.43
13367;BME280;6752;52.612;13.630;2022-07-10T08:49:29;101185.14;;;17.21;74.03
13367;BME280;6752;52.612;13.630;2022-07-10T08:54:32;101180.92;;;17.43;71.91
13367;BME280;6752;52.612;13.630;2022-07-10T08:59:34;101192.07;;;17.70;69.85
13367;BME280;6752;52.612;13.630;2022-07-10T09:04:36;101181.94;;;17.98;68.93
13367;BME280;6752;52.612;13.630;2022-07-10T09:09:56;101193.53;;;17.86;67.59
13367;BME280;6752;52.612;13.630;2022-07-10T09:15:15;101192.75;;;17.69;68.46
13367;BME280;6752;52.612;13.630;2022-07-10T09:20:27;101192.33;;;17.60;67.34
13367;BME280;6752;52.612;13.630;2022-07-10T09:25:32;101188.12;;;18.32;67.44
13367;BME280;6752;52.612;13.630;2022-07-10T09:30:34;101196.14;;;18.33;66.94
13367;BME280;6752;52.612;13.630;2022-07-10T09:35:36;101182.37;;;18.49;66.26
13367;BME280;6752;52.612;13.630;2022-07-10T09:40:56;101181.89;;;18.58;65.32
13367;BME280;6752;52.612;13.630;2022-07-10T09:45:58;101178.28;;;18.54;64.48
13367;BME280;6752;52.612;13.630;2022-07-10T09:51:01;101178.34;;;18.92;63.89
13367;BME280;6752;52.612;13.630;2022-07-10T09:56:03;101177.05;;;19.02;63.20
13367;BME280;6752;52.612;13.630;2022-07-10T10:01:06;101186.41;;;18.80;63.30
13367;BME280;6752;52.612;13.630;2022-07-10T10:06:11;101182.39;;;18.79;61.74
13367;BME280;6752;52.612;13.630;2022-07-10T10:11:14;101174.30;;;19.41;61.28
13367;BME280;6752;52.612;13.630;2022-07-10T10:16:17;101167.95;;;19.65;59.94
13367;BME280;6752;52.612;13.630;2022-07-10T10:21:19;101166.05;;;19.78;58.58
13367;BME280;6752;52.612;13.630;2022-07-10T10:26:21;101163.56;;;20.15;59.78
13367;BME280;6752;52.612;13.630;2022-07-10T10:31:24;101169.45;;;19.98;60.33
13367;BME280;6752;52.612;13.630;2022-07-10T10:41:52;101176.44;;;19.82;58.88
13367;BME280;6752;52.612;13.630;2022-07-10T10:46:58;101167.83;;;20.58;59.48
13367;BME280;6752;52.612;13.630;2022-07-10T10:52:09;101178.77;;;20.72;58.60
13367;BME280;6752;52.612;13.630;2022-07-10T10:57:16;101183.31;;;20.54;57.84
13367;BME280;6752;52.612;13.630;2022-07-10T11:02:21;101187.21;;;20.99;58.71
13367;BME280;6752;52.612;13.630;2022-07-10T11:07:58;101187.11;;;20.25;59.27
13367;BME280;6752;52.612;13.630;2022-07-10T11:13:17;101199.31;;;19.43;58.85
13367;BME280;6752;52.612;13.630;2022-07-10T11:18:22;101178.61;;;21.03;56.39
13367;BME280;6752;52.612;13.630;2022-07-10T11:28:58;101188.85;;;20.54;55.63
13367;BME280;6752;52.612;13.630;2022-07-10T11:34:00;101178.23;;;20.85;55.50
13367;BME280;6752;52.612;13.630;2022-07-10T11:39:06;101196.94;;;19.59;56.91
13367;BME280;6752;52.612;13.630;2022-07-10T11:44:12;101199.98;;;20.26;56.86
13367;BME280;6752;52.612;13.630;2022-07-10T11:49:10;101196.11;;;20.34;56.89
13367;BME280;6752;52.612;13.630;2022-07-10T11:54:16;101201.06;;;20.58;55.39
13367;BME280;6752;52.612;13.630;2022-07-10T11:59:18;101191.37;;;20.99;56.21
13367;BME280;6752;52.612;13.630;2022-07-10T12:04:21;101195.66;;;21.29;53.00
13367;BME280;6752;52.612;13.630;2022-07-10T12:09:25;101182.98;;;21.52;53.36
13367;BME280;6752;52.612;13.630;2022-07-10T12:14:28;101194.82;;;21.18;54.36
13367;BME280;6752;52.612;13.630;2022-07-10T12:19:40;101197.62;;;20.31;54.27
13367;BME280;6752;52.612;13.630;2022-07-10T12:24:32;101184.58;;;20.96;53.55
13367;BME280;6752;52.612;13.630;2022-07-10T12:29:35;101185.00;;;21.34;52.28
13367;BME280;6752;52.612;13.630;2022-07-10T12:34:40;101185.09;;;22.26;51.92
13367;BME280;6752;52.612;13.630;2022-07-10T12:39:52;101190.29;;;21.70;53.71
13367;BME280;6752;52.612;13.630;2022-07-10T12:45:12;101198.00;;;21.44;53.16
13367;BME280;6752;52.612;13.630;2022-07-10T12:50:13;101182.91;;;22.99;52.30
13367;BME280;6752;52.612;13.630;2022-07-10T12:55:19;101190.39;;;22.42;50.92
13367;BME280;6752;52.612;13.630;2022-07-10T13:00:28;101195.38;;;21.02;53.73
13367;BME280;6752;52.612;13.630;2022-07-10T13:05:26;101198.20;;;22.37;52.08
13367;BME280;6752;52.612;13.630;2022-07-10T13:10:28;101189.57;;;20.96;54.39
13367;BME280;6752;52.612;13.630;2022-07-10T13:15:31;101191.35;;;21.19;52.49
13367;BME280;6752;52.612;13.630;2022-07-10T13:20:33;101204.50;;;20.54;54.24
13367;BME280;6752;52.612;13.630;2022-07-10T13:25:38;101216.78;;;20.04;55.98
13367;BME280;6752;52.612;13.630;2022-07-10T13:30:41;101222.31;;;20.40;57.20
13367;BME280;6752;52.612;13.630;2022-07-10T13:35:43;101222.35;;;20.45;55.46
13367;BME280;6752;52.612;13.630;2022-07-10T13:40:45;101209.55;;;21.76;52.89
13367;BME280;6752;52.612;13.630;2022-07-10T13:45:48;101201.73;;;22.23;51.84
13367;BME280;6752;52.612;13.630;2022-07-10T13:50:50;101185.88;;;23.07;51.24
13367;BME280;6752;52.612;13.630;2022-07-10T13:55:52;101205.94;;;21.76;52.82
13367;BME280;6752;52.612;13.630;2022-07-10T14:00:55;101203.69;;;22.50;53.02
13367;BME280;6752;52.612;13.630;2022-07-10T14:05:58;101188.41;;;22.50;51.26
13367;BME280;6752;52.612;13.630;2022-07-10T14:11:00;101192.58;;;22.50;51.96
13367;BME280;6752;52.612;13.630;2022-07-10T14:16:02;101188.34;;;22.58;50.87
13367;BME280;6752;52.612;13.630;2022-07-10T14:21:05;101180.55;;;22.82;52.19
13367;BME280;6752;52.612;13.630;2022-07-10T14:26:07;101187.61;;;22.42;51.29
13367;BME280;6752;52.612;13.630;2022-07-10T14:31:09;101186.12;;;22.13;51.32
13367;BME280;6752;52.612;13.630;2022-07-10T14:36:12;101187.07;;;21.12;52.43
13367;BME280;6752;52.612;13.630;2022-07-10T14:41:14;101189.20;;;22.09;51.83
13367;BME280;6752;52.612;13.630;2022-07-10T14:46:34;101174.81;;;22.26;52.10
13367;BME280;6752;52.612;13.630;2022-07-10T14:51:37;101182.37;;;20.65;53.84
13367;BME280;6752;52.612;13.630;2022-07-10T14:56:42;101175.19;;;22.02;52.77
13367;BME280;6752;52.612;13.630;2022-07-10T15:01:44;101172.37;;;21.17;53.63
13367;BME280;6752;52.612;13.630;2022-07-10T15:06:46;101166.67;;;21.23;53.07
13367;BME280;6752;52.612;13.630;2022-07-10T15:11:52;101156.89;;;22.28;51.32
13367;BME280;6752;52.612;13.630;2022-07-10T15:16:54;101149.61;;;22.13;51.03
13367;BME280;6752;52.612;13.630;2022-07-10T15:21:57;101140.20;;;22.87;50.03
13367;BME280;6752;52.612;13.630;2022-07-10T15:26:59;101146.00;;;22.73;49.46
13367;BME280;6752;52.612;13.630;2022-07-10T15:32:01;101140.68;;;22.60;49.87
13367;BME280;6752;52.612;13.630;2022-07-10T15:37:04;101133.39;;;22.52;49.21
13367;BME280;6752;52.612;13.630;2022-07-10T15:42:08;101148.55;;;22.45;49.38
13367;BME280;6752;52.612;13.630;2022-07-10T15:47:10;101143.68;;;21.17;51.41
13367;BME280;6752;52.612;13.630;2022-07-10T15:52:12;101138.86;;;20.80;50.61
13367;BME280;6752;52.612;13.630;2022-07-10T16:02:25;101128.11;;;21.82;49.27
13367;BME280;6752;52.612;13.630;2022-07-10T16:07:30;101128.86;;;21.15;50.40
13367;BME280;6752;52.612;13.630;2022-07-10T16:12:35;101136.33;;;21.20;51.55
13367;BME280;6752;52.612;13.630;2022-07-10T16:17:39;101130.55;;;20.93;51.65
13367;BME280;6752;52.612;13.630;2022-07-10T16:22:41;101143.14;;;21.00;53.32
13367;BME280;6752;52.612;13.630;2022-07-10T16:27:43;101140.94;;;21.10;52.79
13367;BME280;6752;52.612;13.630;2022-07-10T16:32:48;101135.47;;;21.42;53.20
13367;BME280;6752;52.612;13.630;2022-07-10T16:37:50;101129.41;;;21.32;52.37
13367;BME280;6752;52.612;13.630;2022-07-10T16:42:52;101128.48;;;20.72;51.44
13367;BME280;6752;52.612;13.630;2022-07-10T16:47:55;101130.98;;;20.91;52.11
13367;BME280;6752;52.612;13.630;2022-07-10T16:52:57;101142.20;;;20.67;52.61
13367;BME280;6752;52.612;13.630;2022-07-10T16:58:00;101145.95;;;20.08;53.14
13367;BME280;6752;52.612;13.630;2022-07-10T17:03:03;101147.75;;;20.08;54.06
13367;BME280;6752;52.612;13.630;2022-07-10T17:08:05;101143.58;;;20.44;54.32
13367;BME280;6752;52.612;13.630;2022-07-10T17:13:07;101137.09;;;20.62;53.19
13367;BME280;6752;52.612;13.630;2022-07-10T17:18:10;101136.39;;;20.69;52.99
13367;BME280;6752;52.612;13.630;2022-07-10T17:23:12;101133.48;;;20.62;53.38
13367;BME280;6752;52.612;13.630;2022-07-10T17:28:15;101137.06;;;20.45;54.22
13367;BME280;6752;52.612;13.630;2022-07-10T17:33:17;101132.58;;;20.26;53.57
13367;BME280;6752;52.612;13.630;2022-07-10T17:38:20;101147.79;;;20.13;54.49
13367;BME280;6752;52.612;13.630;2022-07-10T17:43:22;101145.86;;;20.21;53.70
13367;BME280;6752;52.612;13.630;2022-07-10T17:48:24;101145.86;;;20.16;54.44
13367;BME280;6752;52.612;13.630;2022-07-10T17:53:29;101153.31;;;19.72;55.17
13367;BME280;6752;52.612;13.630;2022-07-10T17:58:31;101152.34;;;19.72;55.54
13367;BME280;6752;52.612;13.630;2022-07-10T18:03:33;101149.73;;;19.76;55.65
13367;BME280;6752;52.612;13.630;2022-07-10T18:08:48;101150.67;;;19.68;56.17
13367;BME280;6752;52.612;13.630;2022-07-10T18:13:52;101156.66;;;19.79;56.14
13367;BME280;6752;52.612;13.630;2022-07-10T18:18:54;101156.28;;;19.57;56.17
13367;BME280;6752;52.612;13.630;2022-07-10T18:23:57;101163.09;;;19.42;57.38
13367;BME280;6752;52.612;13.630;2022-07-10T18:29:01;101171.88;;;19.13;57.60
13367;BME280;6752;52.612;13.630;2022-07-10T18:34:04;101172.81;;;18.92;58.10
13367;BME280;6752;52.612;13.630;2022-07-10T18:39:33;101179.16;;;18.60;59.33
13367;BME280;6752;52.612;13.630;2022-07-10T18:44:36;101177.62;;;18.58;59.60
13367;BME280;6752;52.612;13.630;2022-07-10T18:49:38;101183.40;;;18.43;59.98
13367;BME280;6752;52.612;13.630;2022-07-10T18:54:40;101195.42;;;18.30;61.18
13367;BME280;6752;52.612;13.630;2022-07-10T18:59:43;101195.29;;;18.19;61.83
13367;BME280;6752;52.612;13.630;2022-07-10T19:04:45;101194.73;;;18.06;62.26
13367;BME280;6752;52.612;13.630;2022-07-10T19:09:48;101205.78;;;17.85;62.85
13367;BME280;6752;52.612;13.630;2022-07-10T19:14:50;101208.73;;;17.78;63.28
13367;BME280;6752;52.612;13.630;2022-07-10T19:19:53;101208.65;;;17.54;64.27
13367;BME280;6752;52.612;13.630;2022-07-10T19:24:55;101215.86;;;17.21;66.51
13367;BME280;6752;52.612;13.630;2022-07-10T19:29:57;101220.50;;;17.54;65.77
13367;BME280;6752;52.612;13.630;2022-07-10T19:35:00;101230.03;;;17.10;67.93
13367;BME280;6752;52.612;13.630;2022-07-10T19:40:02;101237.41;;;16.91;67.89
13367;BME280;6752;52.612;13.630;2022-07-10T19:45:05;101233.47;;;17.03;67.78
13367;BME280;6752;52.612;13.630;2022-07-10T19:50:09;101244.27;;;16.54;69.12
13367;BME280;6752;52.612;13.630;2022-07-10T19:55:11;101246.34;;;16.61;68.87
13367;BME280;6752;52.612;13.630;2022-07-10T20:00:14;101249.52;;;16.55;68.87
13367;BME280;6752;52.612;13.630;2022-07-10T20:05:16;101254.72;;;16.46;70.13
13367;BME280;6752;52.612;13.630;2022-07-10T20:10:18;101242.84;;;16.51;68.48
13367;BME280;6752;52.612;13.630;2022-07-10T20:15:22;101250.04;;;16.38;70.36
13367;BME280;6752;52.612;13.630;2022-07-10T20:20:24;101259.99;;;15.87;72.27
13367;BME280;6752;52.612;13.630;2022-07-10T20:25:27;101259.16;;;15.75;73.06
13367;BME280;6752;52.612;13.630;2022-07-10T20:30:29;101258.41;;;16.31;71.28
13367;BME280;6752;52.612;13.630;2022-07-10T20:35:38;101260.87;;;16.16;71.71
13367;BME280;6752;52.612;13.630;2022-07-10T20:40:41;101259.98;;;16.13;71.11
13367;BME280;6752;52.612;13.630;2022-07-10T20:45:43;101267.32;;;15.84;72.61
13367;BME280;6752;52.612;13.630;2022-07-10T20:50:45;101265.54;;;15.49;73.76
13367;BME280;6752;52.612;13.630;2022-07-10T20:55:48;101260.10;;;15.51;73.73
13367;BME280;6752;52.612;13.630;2022-07-10T21:00:50;101267.87;;;15.48;73.73
13367;BME280;6752;52.612;13.630;2022-07-10T21:05:53;101268.92;;;15.36;73.50
13367;BME280;6752;52.612;13.630;2022-07-10T21:10:55;101270.80;;;15.00;75.57
13367;BME280;6752;52.612;13.630;2022-07-10T21:15:58;101271.48;;;14.90;76.29
13367;BME280;6752;52.612;13.630;2022-07-10T21:21:00;101269.86;;;14.80;76.62
13367;BME280;6752;52.612;13.630;2022-07-10T21:26:02;101278.27;;;14.81;77.02
13367;BME280;6752;52.612;13.630;2022-07-10T21:31:05;101278.28;;;14.87;76.90
13367;BME280;6752;52.612;13.630;2022-07-10T21:36:10;101283.76;;;14.66;78.27
13367;BME280;6752;52.612;13.630;2022-07-10T21:41:12;101284.00;;;14.65;79.38
13367;BME280;6752;52.612;13.630;2022-07-10T21:46:20;101276.01;;;14.84;79.23
13367;BME280;6752;52.612;13.630;2022-07-10T21:51:22;101282.52;;;14.86;78.50
13367;BME280;6752;52.612;13.630;2022-07-10T21:56:25;101279.05;;;15.12;78.70
13367;BME280;6752;52.612;13.630;2022-07-10T22:01:27;101282.68;;;14.97;79.27
13367;BME280;6752;52.612;13.630;2022-07-10T22:06:29;101285.14;;;15.08;79.23
13367;BME280;6752;52.612;13.630;2022-07-10T22:11:31;101276.36;;;15.03;79.96
13367;BME280;6752;52.612;13.630;2022-07-10T22:16:34;101276.88;;;15.17;79.56
13367;BME280;6752;52.612;13.630;2022-07-10T22:21:36;101275.28;;;15.04;80.22
13367;BME280;6752;52.612;13.630;2022-07-10T22:26:38;101279.72;;;14.90;81.03
13367;BME280;6752;52.612;13.630;2022-07-10T22:31:41;101286.02;;;14.73;82.03
13367;BME280;6752;52.612;13.630;2022-07-10T22:36:43;101282.02;;;14.72;82.30
13367;BME280;6752;52.612;13.630;2022-07-10T22:41:45;101278.20;;;14.58;83.73
13367;BME280;6752;52.612;13.630;2022-07-10T22:46:48;101285.30;;;14.62;84.44
13367;BME280;6752;52.612;13.630;2022-07-10T22:51:50;101265.56;;;14.78;83.25
13367;BME280;6752;52.612;13.630;2022-07-10T22:56:52;101272.85;;;14.90;82.22
13367;BME280;6752;52.612;13.630;2022-07-10T23:01:55;101263.76;;;14.93;82.32
13367;BME280;6752;52.612;13.630;2022-07-10T23:06:57;101263.52;;;14.94;82.44
13367;BME280;6752;52.612;13.630;2022-07-10T23:11:59;101263.58;;;14.91;83.00
13367;BME280;6752;52.612;13.630;2022-07-10T23:17:02;101267.34;;;14.99;83.05
13367;BME280;6752;52.612;13.630;2022-07-10T23:22:04;101268.84;;;14.98;83.72
13367;BME280;6752;52.612;13.630;2022-07-10T23:27:07;101267.28;;;15.02;83.40
13367;BME280;6752;52.612;13.630;2022-07-10T23:32:09;101271.53;;;15.07;83.78
13367;BME280;6752;52.612;13.630;2022-07-10T23:37:11;101269.73;;;15.01;84.34
13367;BME280;6752;52.612;13.630;2022-07-10T23:42:14;101267.47;;;15.10;84.64
13367;BME280;6752;52.612;13.630;2022-07-10T23:47:16;101263.28;;;15.01;85.34
13367;BME280;6752;52.612;13.630;2022-07-10T23:52:18;101262.34;;;15.02;85.86
13367;BME280;6752;52.612;13.630;2022-07-10T23:57:21;101261.58;;;14.89;87.19
